Time;durP1;ratioP1;P1;durP2;ratioP2;P2;SDS_P1;SDS_P2;PMS_P1;PMS_P2;Temp;Humidity;BMP_temperature;BMP_pressure;BME280_temperature;BME280_humidity;BME280_pressure;Samples;Min_cycle;Max_cycle;Signal;HPM_P1;HPM_P2
2023/04/03 00:01:08;;;;;;;92.27;87.17;;;20.00;89.30;;;;;;5084164;28;20283;-64
2023/04/03 00:03:36;;;;;;;86.00;81.17;;;20.00;89.70;;;;;;5083577;28;20278;-65
2023/04/03 00:06:06;;;;;;;82.23;77.67;;;20.00;89.90;;;;;;5074013;28;20206;-69
2023/04/03 00:08:34;;;;;;;74.03;69.80;;;20.00;90.00;;;;;;5084599;28;20227;-65
2023/04/03 00:11:01;;;;;;;70.80;66.60;;;19.90;89.90;;;;;;5063943;28;20237;-65
2023/04/03 00:13:29;;;;;;;64.27;60.47;;;19.80;89.90;;;;;;5058049;28;20499;-65
2023/04/03 00:15:56;;;;;;;56.73;53.20;;;19.80;90.00;;;;;;5091103;28;20260;-65
2023/04/03 00:18:24;;;;;;;56.07;52.63;;;19.80;90.10;;;;;;5077439;28;20536;-67
2023/04/03 00:20:51;;;;;;;62.60;58.60;;;19.80;90.20;;;;;;5070424;28;20518;-66
2023/04/03 00:23:19;;;;;;;64.30;60.10;;;19.80;90.50;;;;;;5087012;28;20217;-66
2023/04/03 00:25:46;;;;;;;60.63;56.87;;;19.70;90.70;;;;;;5069536;28;20191;-66
2023/04/03 00:28:14;;;;;;;66.70;62.43;;;19.60;91.00;;;;;;5073819;28;20176;-66
2023/04/03 00:30:41;;;;;;;71.43;66.70;;;19.70;91.30;;;;;;5069639;28;20576;-66
2023/04/03 00:33:10;;;;;;;72.63;67.87;;;19.70;91.60;;;;;;5059095;28;20179;-71
2023/04/03 00:35:38;;;;;;;72.90;68.33;;;19.70;91.80;;;;;;5072944;28;20218;-70
2023/04/03 00:38:05;;;;;;;77.47;72.63;;;19.80;91.70;;;;;;5059691;28;20176;-69
2023/04/03 00:40:38;;;;;;;78.20;73.00;;;19.90;91.90;;;;;;5068442;28;20549;-71
2023/04/03 00:43:26;;;;;;;75.07;70.43;;;20.10;92.20;;;;;;5063654;28;20266;-68
2023/04/03 00:45:56;;;;;;;76.83;72.10;;;20.10;91.60;;;;;;5070803;28;20179;-65
2023/04/03 00:48:34;;;;;;;69.07;65.00;;;20.20;91.60;;;;;;5071561;28;20183;-66
2023/04/03 00:51:06;;;;;;;64.87;60.80;;;20.30;91.40;;;;;;5071713;28;20182;-69
2023/04/03 00:53:50;;;;;;;62.23;58.10;;;20.30;91.30;;;;;;5071180;28;20179;-65
2023/04/03 00:56:22;;;;;;;65.17;61.23;;;20.60;91.40;;;;;;5072710;28;20179;-69
2023/04/03 00:58:57;;;;;;;58.30;54.57;;;21.10;90.70;;;;;;5071998;28;20175;-67
2023/04/03 01:01:27;;;;;;;41.57;38.33;;;21.30;89.50;;;;;;5071313;28;20182;-72
2023/04/03 01:03:55;;;;;;;30.87;28.77;;;21.60;88.80;;;;;;5069775;28;20661;-68
2023/04/03 01:06:27;;;;;;;17.07;15.77;;;21.70;86.50;;;;;;5071033;28;20179;-67
2023/04/03 01:08:56;;;;;;;16.37;15.07;;;21.90;86.00;;;;;;5070413;28;20218;-69
2023/04/03 01:11:23;;;;;;;17.10;15.40;;;22.30;86.40;;;;;;5072411;28;20180;-69
2023/04/03 01:13:51;;;;;;;12.07;10.97;;;22.40;85.50;;;;;;5071070;28;20282;-68
2023/04/03 01:16:19;;;;;;;10.77;7.37;;;22.50;84.80;;;;;;5072517;28;20179;-73
2023/04/03 01:18:47;;;;;;;8.83;5.97;;;22.60;83.90;;;;;;5083677;28;20262;-69
2023/04/03 01:21:35;;;;;;;5.87;3.60;;;22.50;82.00;;;;;;5066582;28;20180;-69
2023/04/03 01:24:15;;;;;;;8.50;2.90;;;22.60;81.50;;;;;;5069115;28;20176;-70
2023/04/03 01:26:43;;;;;;;6.17;2.70;;;22.80;80.60;;;;;;5067650;28;20198;-69
2023/04/03 01:29:11;;;;;;;7.43;2.70;;;22.80;80.00;;;;;;5070265;28;20194;-73
2023/04/03 01:31:53;;;;;;;8.47;2.37;;;23.00;80.80;;;;;;5069287;28;20183;-69
2023/04/03 01:34:20;;;;;;;8.40;2.53;;;23.30;80.10;;;;;;5058300;28;20260;-71
2023/04/03 01:36:48;;;;;;;5.07;2.23;;;23.50;79.50;;;;;;5068829;28;20195;-67
2023/04/03 01:39:15;;;;;;;6.97;1.80;;;23.70;77.10;;;;;;5067017;28;20182;-67
2023/04/03 01:41:43;;;;;;;7.00;2.20;;;23.40;74.80;;;;;;5065908;28;20190;-66
2023/04/03 01:44:10;;;;;;;6.93;1.93;;;23.60;74.00;;;;;;5083399;28;20181;-68
2023/04/03 01:46:38;;;;;;;8.17;2.07;;;23.80;74.10;;;;;;5070050;28;20183;-73
2023/04/03 01:49:05;;;;;;;4.20;1.50;;;23.80;73.90;;;;;;5072071;28;20171;-66
2023/04/03 01:51:33;;;;;;;6.30;2.37;;;23.70;73.60;;;;;;5072379;28;20551;-73
2023/04/03 01:54:00;;;;;;;8.57;2.20;;;23.80;74.80;;;;;;5068531;28;20645;-65
2023/04/03 01:56:28;;;;;;;6.20;1.63;;;24.20;72.70;;;;;;5071728;28;20219;-66
2023/04/03 01:58:55;;;;;;;5.73;1.50;;;24.30;70.30;;;;;;5069709;28;20228;-72
2023/04/03 02:01:23;;;;;;;7.07;1.50;;;24.30;69.70;;;;;;5071869;28;20183;-70
2023/04/03 02:03:50;;;;;;;6.10;1.60;;;24.10;69.60;;;;;;5070149;28;20210;-66
2023/04/03 02:06:18;;;;;;;9.47;1.40;;;24.00;70.60;;;;;;5058770;28;20198;-66
2023/04/03 02:08:45;;;;;;;7.70;1.73;;;24.20;68.90;;;;;;5070350;28;20223;-67
2023/04/03 02:11:12;;;;;;;6.37;1.47;;;24.40;69.20;;;;;;5074073;28;20260;-69
2023/04/03 02:13:40;;;;;;;10.73;1.97;;;24.50;68.00;;;;;;5073546;28;20194;-67
2023/04/03 02:16:12;;;;;;;6.00;1.57;;;24.40;67.30;;;;;;5074928;28;20661;-66
2023/04/03 02:18:39;;;;;;;5.63;1.50;;;24.30;66.70;;;;;;5072168;28;20712;-66
2023/04/03 02:21:07;;;;;;;6.10;1.80;;;24.60;68.30;;;;;;5075223;28;20193;-66
2023/04/03 02:23:36;;;;;;;4.77;1.20;;;24.90;68.30;;;;;;5070703;28;20540;-66
2023/04/03 02:26:14;;;;;;;4.83;1.40;;;24.70;67.00;;;;;;5074117;28;20186;-67
2023/04/03 02:28:42;;;;;;;6.03;1.40;;;24.50;68.00;;;;;;5074516;28;20574;-66
2023/04/03 02:31:10;;;;;;;7.60;1.77;;;24.70;68.00;;;;;;5074433;28;20590;-67
2023/04/03 02:33:38;;;;;;;5.30;1.50;;;24.80;66.90;;;;;;5074169;28;20199;-66
2023/04/03 02:36:07;;;;;;;4.27;1.50;;;24.80;67.10;;;;;;5073230;28;20677;-65
2023/04/03 02:38:35;;;;;;;7.10;1.57;;;24.90;65.90;;;;;;5074756;28;20187;-66
2023/04/03 02:41:04;;;;;;;5.03;1.50;;;24.90;65.60;;;;;;5074112;28;20184;-66
2023/04/03 02:43:32;;;;;;;8.83;1.43;;;24.80;66.30;;;;;;5073034;28;20187;-67
2023/04/03 02:45:59;;;;;;;6.50;1.37;;;24.90;65.80;;;;;;5074944;28;20183;-68
2023/04/03 02:48:30;;;;;;;8.13;1.50;;;25.10;63.70;;;;;;5074715;28;20539;-64
2023/04/03 02:50:57;;;;;;;5.33;1.67;;;25.30;65.30;;;;;;5073149;28;20171;-66
2023/04/03 02:53:24;;;;;;;9.20;2.10;;;25.70;65.30;;;;;;5076720;28;20193;-65
2023/04/03 02:55:52;;;;;;;7.30;1.90;;;25.50;64.10;;;;;;5074068;28;20221;-65
2023/04/03 02:58:19;;;;;;;6.10;1.40;;;25.60;64.50;;;;;;5072783;28;20187;-64
2023/04/03 03:00:46;;;;;;;5.83;1.50;;;25.90;62.30;;;;;;5074236;28;20298;-66
2023/04/03 03:03:14;;;;;;;5.83;1.90;;;25.90;63.10;;;;;;5073326;28;20183;-67
2023/04/03 03:05:42;;;;;;;8.93;1.37;;;25.80;62.70;;;;;;5073586;28;20183;-66
2023/04/03 03:08:09;;;;;;;6.17;1.13;;;25.90;61.90;;;;;;5072580;28;20234;-65
2023/04/03 03:10:36;;;;;;;6.73;1.30;;;25.80;61.50;;;;;;5072573;28;20317;-67
2023/04/03 03:13:04;;;;;;;5.47;1.30;;;25.20;63.20;;;;;;5069876;28;20768;-66
2023/04/03 03:15:31;;;;;;;3.60;1.30;;;24.70;64.50;;;;;;5073273;28;20209;-69
2023/04/03 03:17:59;;;;;;;5.20;1.70;;;24.70;66.40;;;;;;5066833;28;20183;-64
2023/04/03 03:20:26;;;;;;;5.33;1.70;;;24.80;66.60;;;;;;5074109;28;20191;-65
2023/04/03 03:22:54;;;;;;;4.23;1.47;;;24.70;66.10;;;;;;5072820;28;20645;-68
2023/04/03 03:25:22;;;;;;;7.57;1.80;;;24.20;67.00;;;;;;5070734;28;20175;-67
2023/04/03 03:27:49;;;;;;;3.53;1.20;;;24.40;67.20;;;;;;5073277;28;20637;-68
2023/04/03 03:30:17;;;;;;;5.23;1.27;;;24.80;66.10;;;;;;5073577;28;20542;-67
2023/04/03 03:32:44;;;;;;;5.07;1.50;;;24.70;66.80;;;;;;5065186;28;20186;-67
2023/04/03 03:35:11;;;;;;;2.87;1.37;;;24.40;67.20;;;;;;5067228;28;20575;-68
2023/04/03 03:37:39;;;;;;;9.23;1.70;;;24.30;65.50;;;;;;5069323;28;20175;-67
2023/04/03 03:40:07;;;;;;;6.50;1.60;;;24.80;65.20;;;;;;5076974;28;20182;-68
2023/04/03 03:42:34;;;;;;;6.70;1.67;;;24.80;66.50;;;;;;5070102;28;20172;-66
2023/04/03 03:45:01;;;;;;;6.10;1.93;;;25.20;65.30;;;;;;5061226;28;20573;-66
2023/04/03 03:47:29;;;;;;;4.87;1.27;;;25.80;63.40;;;;;;5073824;28;20175;-66
2023/04/03 03:49:56;;;;;;;5.73;1.53;;;25.40;62.90;;;;;;5068592;28;20225;-67
2023/04/03 03:52:24;;;;;;;7.30;1.60;;;24.80;65.10;;;;;;5066162;28;20666;-65
2023/04/03 03:54:51;;;;;;;5.77;1.67;;;24.50;66.90;;;;;;5072626;28;20241;-67
2023/04/03 03:57:19;;;;;;;6.03;1.77;;;24.80;66.60;;;;;;5074390;28;20649;-64
2023/04/03 03:59:47;;;;;;;7.47;1.73;;;24.70;65.50;;;;;;5072438;28;20230;-67
2023/04/03 04:02:14;;;;;;;6.90;1.60;;;24.70;66.30;;;;;;5073914;28;20179;-67
2023/04/03 04:04:42;;;;;;;7.13;1.70;;;24.70;64.40;;;;;;5071963;28;20179;-65
2023/04/03 04:07:09;;;;;;;6.57;1.77;;;25.30;63.90;;;;;;5067057;28;20183;-67
2023/04/03 04:09:36;;;;;;;9.30;3.13;;;25.90;61.20;;;;;;5073064;28;20368;-66
2023/04/03 04:12:04;;;;;;;12.87;3.23;;;26.20;61.00;;;;;;5073013;28;20256;-64
2023/04/03 04:14:31;;;;;;;5.27;1.47;;;26.30;59.50;;;;;;5076241;28;20265;-66
2023/04/03 04:16:58;;;;;;;7.53;1.80;;;26.30;59.90;;;;;;5079182;28;20179;-67
2023/04/03 04:19:29;;;;;;;8.03;1.73;;;26.30;59.10;;;;;;5072305;28;20202;-66
2023/04/03 04:21:57;;;;;;;7.50;1.53;;;25.80;59.60;;;;;;5072212;28;20245;-65
2023/04/03 04:24:24;;;;;;;8.37;1.60;;;25.90;59.60;;;;;;5072005;28;20170;-68
2023/04/03 04:26:51;;;;;;;6.70;1.50;;;26.10;59.80;;;;;;5068027;28;20273;-68
2023/04/03 04:29:19;;;;;;;7.20;1.83;;;26.40;58.20;;;;;;5068295;28;20183;-67
2023/04/03 04:31:46;;;;;;;6.93;1.40;;;26.70;57.30;;;;;;5070128;28;20252;-70
2023/04/03 04:34:13;;;;;;;8.17;2.10;;;26.20;58.90;;;;;;5065164;28;20229;-70
2023/04/03 04:36:41;;;;;;;8.47;1.77;;;26.60;58.90;;;;;;5072363;28;20196;-66
2023/04/03 04:39:08;;;;;;;7.67;1.83;;;26.30;61.20;;;;;;5071994;28;20205;-66
2023/04/03 04:41:36;;;;;;;7.23;2.30;;;26.40;60.40;;;;;;5070770;28;20194;-66
2023/04/03 04:44:03;;;;;;;7.77;1.70;;;26.10;59.90;;;;;;5065785;28;20587;-75
2023/04/03 04:46:32;;;;;;;12.07;4.20;;;25.40;61.50;;;;;;5075896;28;20174;-68
2023/04/03 04:48:59;;;;;;;11.10;2.93;;;25.10;62.30;;;;;;5074048;28;20195;-66
2023/04/03 04:51:26;;;;;;;6.40;2.37;;;25.00;64.00;;;;;;5066716;28;20191;-67
2023/04/03 04:53:54;;;;;;;6.47;1.60;;;25.90;62.40;;;;;;5067068;28;20181;-72
2023/04/03 04:56:21;;;;;;;10.33;2.30;;;26.40;59.80;;;;;;5066733;28;20215;-67
2023/04/03 04:58:49;;;;;;;10.03;4.80;;;26.40;59.20;;;;;;5070389;28;20183;-68
2023/04/03 05:01:16;;;;;;;7.43;1.87;;;27.30;58.50;;;;;;5068777;28;20187;-66
2023/04/03 05:03:43;;;;;;;9.23;1.83;;;27.30;56.80;;;;;;5066751;28;20203;-69
2023/04/03 05:06:11;;;;;;;7.77;1.23;;;27.50;57.60;;;;;;5069971;28;20265;-67
2023/04/03 05:08:38;;;;;;;7.73;1.70;;;27.80;57.00;;;;;;5069789;28;20284;-66
2023/04/03 05:11:06;;;;;;;6.60;2.20;;;27.30;58.40;;;;;;5067020;28;20723;-66
2023/04/03 05:13:33;;;;;;;9.33;2.53;;;26.60;59.70;;;;;;5070450;28;20179;-70
2023/04/03 05:16:00;;;;;;;5.67;1.97;;;27.40;57.70;;;;;;5065327;28;20203;-67
2023/04/03 05:18:28;;;;;;;6.20;2.57;;;26.90;58.00;;;;;;5070020;28;20266;-69
2023/04/03 05:20:55;;;;;;;9.53;2.73;;;27.10;57.60;;;;;;5075917;28;20206;-67
2023/04/03 05:23:22;;;;;;;7.10;2.10;;;27.00;57.20;;;;;;5071154;28;20269;-67
2023/04/03 05:25:50;;;;;;;7.77;4.07;;;27.10;56.80;;;;;;5064609;28;20206;-70
2023/04/03 05:28:17;;;;;;;6.73;2.00;;;27.30;57.40;;;;;;5066789;28;20175;-66
2023/04/03 05:30:45;;;;;;;8.32;1.75;;;27.60;55.30;;;;;;5068667;28;20179;-68
2023/04/03 05:33:13;;;;;;;4.80;1.30;;;28.00;54.60;;;;;;5067617;28;20202;-66
2023/04/03 05:35:42;;;;;;;6.10;1.50;;;27.40;55.70;;;;;;5070252;28;20203;-67
2023/04/03 05:38:09;;;;;;;11.67;1.50;;;26.80;55.70;;;;;;5070539;28;20614;-66
2023/04/03 05:40:37;;;;;;;8.50;1.50;;;27.20;56.20;;;;;;5066645;28;20528;-66
2023/04/03 05:43:05;;;;;;;4.97;1.30;;;27.60;55.60;;;;;;5069562;28;20179;-68
2023/04/03 05:45:32;;;;;;;7.30;1.80;;;28.20;53.80;;;;;;5069962;28;20316;-73
2023/04/03 05:48:00;;;;;;;8.43;2.87;;;27.30;55.00;;;;;;5070053;28;20190;-72
2023/04/03 05:50:27;;;;;;;7.63;2.77;;;27.60;53.60;;;;;;5074873;28;20178;-74
2023/04/03 05:52:58;;;;;;;7.00;2.10;;;28.20;52.60;;;;;;5070818;28;20232;-69
2023/04/03 05:55:26;;;;;;;6.37;1.57;;;27.40;55.60;;;;;;5070277;28;20321;-68
2023/04/03 05:57:53;;;;;;;10.10;1.87;;;27.90;55.00;;;;;;5067126;28;20201;-72
2023/04/03 06:00:21;;;;;;;6.20;1.47;;;28.30;52.20;;;;;;5075004;28;20179;-71
2023/04/03 06:02:48;;;;;;;3.77;1.27;;;28.50;51.90;;;;;;5075096;28;20704;-67
2023/04/03 06:05:15;;;;;;;6.57;1.27;;;27.80;53.20;;;;;;5074471;28;20199;-67
2023/04/03 06:07:44;;;;;;;5.83;1.40;;;27.50;54.60;;;;;;5078006;28;20280;-70
2023/04/03 06:10:13;;;;;;;5.23;1.53;;;27.20;56.70;;;;;;5073411;28;20191;-67
2023/04/03 06:12:41;;;;;;;5.87;1.20;;;26.60;61.80;;;;;;5071500;28;20183;-69
2023/04/03 06:15:10;;;;;;;7.20;1.47;;;26.00;62.20;;;;;;5075797;28;20210;-71
2023/04/03 06:17:38;;;;;;;4.87;1.53;;;26.60;62.00;;;;;;5074526;28;20190;-70
2023/04/03 06:20:07;;;;;;;6.37;1.50;;;26.50;60.00;;;;;;5076612;28;20728;-69
2023/04/03 06:22:35;;;;;;;5.90;1.77;;;26.70;59.60;;;;;;5077444;28;20179;-67
2023/04/03 06:25:02;;;;;;;10.93;2.07;;;27.10;57.30;;;;;;5076786;28;20191;-73
2023/04/03 06:27:30;;;;;;;8.50;2.07;;;27.10;58.10;;;;;;5069339;28;20187;-68
2023/04/03 06:29:57;;;;;;;7.43;1.60;;;27.40;57.40;;;;;;5072626;28;20634;-71
2023/04/03 06:32:24;;;;;;;4.30;1.53;;;27.20;56.60;;;;;;5070991;28;20198;-69
2023/04/03 06:34:53;;;;;;;6.60;1.60;;;27.30;56.20;;;;;;5073084;28;20305;-70
2023/04/03 06:37:25;;;;;;;7.43;1.70;;;27.10;55.70;;;;;;5065556;28;20179;-69
2023/04/03 06:39:53;;;;;;;7.13;1.77;;;27.00;56.70;;;;;;5073353;28;20626;-69
2023/04/03 06:42:21;;;;;;;9.67;1.77;;;26.30;59.00;;;;;;5072447;28;20292;-72
2023/04/03 06:44:48;;;;;;;8.83;1.70;;;26.80;58.10;;;;;;5071378;28;20187;-66
2023/04/03 06:47:17;;;;;;;8.67;2.23;;;26.60;58.00;;;;;;5073962;28;20190;-70
2023/04/03 06:49:45;;;;;;;6.10;1.90;;;26.50;58.20;;;;;;5075485;28;20680;-67
2023/04/03 06:52:12;;;;;;;7.83;2.03;;;26.10;58.80;;;;;;5074666;28;20175;-74
2023/04/03 06:54:41;;;;;;;10.30;1.97;;;25.00;62.50;;;;;;5074542;28;20206;-71
2023/04/03 06:57:08;;;;;;;7.43;1.90;;;24.30;64.70;;;;;;5074228;28;20187;-66
2023/04/03 06:59:36;;;;;;;8.37;1.83;;;23.80;67.10;;;;;;5064421;28;20183;-68
2023/04/03 07:02:04;;;;;;;13.67;2.00;;;23.50;68.30;;;;;;5069585;28;20186;-66
2023/04/03 07:04:32;;;;;;;17.13;2.50;;;23.40;68.90;;;;;;5078649;28;20188;-67
2023/04/03 07:06:59;;;;;;;8.43;2.10;;;23.40;68.90;;;;;;5069844;28;20187;-66
2023/04/03 07:09:26;;;;;;;9.93;1.70;;;23.20;69.50;;;;;;5069706;28;20235;-66
2023/04/03 07:11:54;;;;;;;7.30;1.70;;;22.90;70.30;;;;;;5064294;28;20175;-68
2023/04/03 07:14:21;;;;;;;12.10;1.73;;;23.00;69.80;;;;;;5085354;28;20183;-65
2023/04/03 07:16:49;;;;;;;11.63;1.90;;;22.80;71.00;;;;;;5073671;28;20240;-66
2023/04/03 07:19:18;;;;;;;14.33;2.57;;;22.60;71.20;;;;;;5074787;28;20318;-66
2023/04/03 07:21:45;;;;;;;9.37;1.90;;;22.50;71.60;;;;;;5074106;28;20222;-67
2023/04/03 07:24:13;;;;;;;10.07;1.90;;;22.40;72.40;;;;;;5071617;28;20183;-70
2023/04/03 07:26:40;;;;;;;12.77;2.20;;;22.30;72.50;;;;;;5072861;28;20172;-68
2023/04/03 07:29:08;;;;;;;10.97;2.17;;;22.20;72.80;;;;;;5078613;28;20175;-67
2023/04/03 07:31:36;;;;;;;13.00;2.17;;;22.20;72.90;;;;;;5074917;28;20388;-68
2023/04/03 07:34:04;;;;;;;9.47;2.20;;;22.00;73.60;;;;;;5072636;28;20537;-66
2023/04/03 07:36:33;;;;;;;9.40;2.03;;;21.90;73.90;;;;;;5078797;28;20673;-68
2023/04/03 07:39:00;;;;;;;14.00;2.47;;;21.80;74.40;;;;;;5069268;28;20207;-67
2023/04/03 07:41:28;;;;;;;11.53;2.37;;;21.80;74.20;;;;;;5067496;28;21613;-66
2023/04/03 07:43:56;;;;;;;9.80;2.43;;;21.70;74.50;;;;;;5067747;28;20647;-67
2023/04/03 07:46:24;;;;;;;10.10;2.23;;;21.70;75.00;;;;;;5064830;28;20228;-67
2023/04/03 07:48:51;;;;;;;10.47;2.20;;;21.70;75.40;;;;;;5073395;28;20179;-66
2023/04/03 07:51:20;;;;;;;11.10;2.27;;;21.60;75.20;;;;;;5070228;28;20187;-66
2023/04/03 07:53:48;;;;;;;9.87;1.93;;;21.60;75.20;;;;;;5071694;28;20270;-68
2023/04/03 07:56:17;;;;;;;8.27;2.20;;;21.50;75.30;;;;;;5073166;28;20214;-67
2023/04/03 07:58:45;;;;;;;7.63;2.33;;;21.50;75.40;;;;;;5070916;28;20183;-66
2023/04/03 08:01:12;;;;;;;10.37;2.33;;;21.50;75.80;;;;;;5063640;28;20224;-65
2023/04/03 08:03:40;;;;;;;12.33;2.20;;;21.50;75.30;;;;;;5072925;28;20179;-68
2023/04/03 08:06:08;;;;;;;10.77;1.90;;;21.40;75.30;;;;;;5072748;28;20203;-66
2023/04/03 08:08:36;;;;;;;9.57;2.40;;;21.40;75.50;;;;;;5070754;28;20318;-66
2023/04/03 08:11:05;;;;;;;7.07;1.80;;;21.40;75.60;;;;;;5072728;28;20641;-66
2023/04/03 08:13:34;;;;;;;8.07;2.13;;;21.40;75.50;;;;;;5072115;28;20333;-66
2023/04/03 08:16:12;;;;;;;10.80;2.30;;;21.30;75.40;;;;;;5070692;28;20215;-66
2023/04/03 08:18:39;;;;;;;8.90;2.00;;;21.30;75.40;;;;;;5063239;28;20178;-66
2023/04/03 08:21:09;;;;;;;8.90;2.07;;;21.20;75.20;;;;;;5071159;28;20256;-66
2023/04/03 08:23:37;;;;;;;11.77;2.40;;;21.20;75.30;;;;;;5073452;28;20207;-66
2023/04/03 08:26:13;;;;;;;12.43;3.30;;;21.20;75.10;;;;;;5071958;28;20171;-66
2023/04/03 08:28:41;;;;;;;11.07;1.87;;;21.20;74.70;;;;;;5064281;28;21679;-66
2023/04/03 08:31:12;;;;;;;13.83;2.50;;;21.10;73.60;;;;;;5072279;28;20211;-66
2023/04/03 08:33:40;;;;;;;14.60;2.20;;;21.10;72.80;;;;;;5070889;28;20218;-67
2023/04/03 08:36:16;;;;;;;9.77;1.97;;;21.20;72.60;;;;;;5072716;28;20207;-66
2023/04/03 08:38:44;;;;;;;11.83;1.93;;;21.20;72.40;;;;;;5064201;28;20198;-66
2023/04/03 08:41:39;;;;;;;10.17;2.10;;;21.20;71.30;;;;;;5081523;28;20179;-66
2023/04/03 08:45:00;;;;;;;12.73;2.30;;;21.30;71.30;;;;;;5072860;28;20186;-66
2023/04/03 08:47:46;;;;;;;7.60;2.27;;;21.30;71.20;;;;;;5072738;28;20198;-66
2023/04/03 08:50:22;;;;;;;11.57;4.03;;;21.30;70.50;;;;;;5072638;28;20217;-65
2023/04/03 08:52:56;;;;;;;18.27;4.63;;;21.30;70.40;;;;;;5071898;28;20228;-66
2023/04/03 08:55:34;;;;;;;9.47;2.10;;;21.30;70.20;;;;;;5072785;28;20237;-67
2023/04/03 08:58:12;;;;;;;11.53;2.67;;;21.30;69.70;;;;;;5069853;28;20201;-67
2023/04/03 09:00:58;;;;;;;11.70;2.37;;;21.40;69.70;;;;;;5067841;28;20198;-66
2023/04/03 09:03:25;;;;;;;11.40;2.10;;;21.40;69.40;;;;;;5072624;28;20183;-65
2023/04/03 09:05:58;;;;;;;12.63;2.07;;;21.40;69.00;;;;;;5069562;28;20568;-65
2023/04/03 09:08:27;;;;;;;10.70;1.60;;;21.30;69.10;;;;;;5058656;28;20689;-65
2023/04/03 09:11:17;;;;;;;8.77;2.20;;;21.30;69.10;;;;;;5062854;28;20213;-65
2023/04/03 09:14:26;;;;;;;7.73;1.80;;;21.30;68.90;;;;;;5074479;28;20179;-65
2023/04/03 09:16:57;;;;;;;8.50;2.23;;;21.30;68.70;;;;;;5026627;28;20192;-65
2023/04/03 09:19:51;;;;;;;8.67;1.83;;;21.30;68.60;;;;;;5052705;28;20199;-67
2023/04/03 09:22:42;;;;;;;16.13;2.73;;;21.30;68.90;;;;;;5066723;28;20585;-65
2023/04/03 09:25:41;;;;;;;9.97;2.10;;;21.30;68.90;;;;;;5071667;28;20187;-68
2023/04/03 09:28:09;;;;;;;11.07;1.83;;;21.20;69.30;;;;;;5070676;28;20202;-66
2023/04/03 09:30:37;;;;;;;12.07;2.17;;;21.20;69.60;;;;;;5075271;28;20271;-66
2023/04/03 09:33:06;;;;;;;10.43;1.77;;;21.20;69.90;;;;;;5060713;28;20195;-64
2023/04/03 09:35:37;;;;;;;10.97;2.73;;;21.20;70.10;;;;;;5068932;28;20617;-66
2023/04/03 09:38:13;;;;;;;6.80;1.93;;;21.20;70.30;;;;;;5066710;28;20190;-67
2023/04/03 09:40:43;;;;;;;10.93;2.40;;;21.10;70.80;;;;;;5065513;28;20229;-66
2023/04/03 09:43:31;;;;;;;7.93;1.80;;;21.10;71.20;;;;;;5067432;28;20198;-65
2023/04/03 09:46:32;;;;;;;8.90;2.30;;;21.10;71.30;;;;;;5065133;28;20179;-66
2023/04/03 09:49:02;;;;;;;11.63;2.00;;;21.10;71.10;;;;;;5067620;28;20179;-67
2023/04/03 09:51:31;;;;;;;19.50;2.17;;;21.10;71.30;;;;;;5069957;28;20184;-66
2023/04/03 09:53:58;;;;;;;8.43;2.03;;;21.00;71.10;;;;;;5070773;28;20183;-65
2023/04/03 09:56:31;;;;;;;11.60;2.17;;;21.00;70.70;;;;;;5070100;28;20220;-65
2023/04/03 09:59:04;;;;;;;14.23;2.37;;;21.10;70.70;;;;;;5078561;28;20202;-67
2023/04/03 10:01:34;;;;;;;9.27;1.90;;;21.10;70.50;;;;;;5071548;28;20179;-66
2023/04/03 10:04:18;;;;;;;8.03;1.70;;;21.20;70.50;;;;;;5075123;28;20190;-67
2023/04/03 10:06:54;;;;;;;7.77;1.77;;;21.20;70.60;;;;;;5070843;28;20242;-67
2023/04/03 10:09:21;;;;;;;10.33;2.43;;;21.20;70.80;;;;;;5068880;28;20222;-67
2023/04/03 10:12:06;;;;;;;13.63;2.10;;;21.20;70.90;;;;;;5070257;28;20211;-66
2023/04/03 10:14:36;;;;;;;8.30;2.07;;;21.20;71.30;;;;;;5070666;28;20643;-66
2023/04/03 10:17:11;;;;;;;8.80;2.50;;;21.10;71.50;;;;;;5078726;28;20652;-66
2023/04/03 10:20:07;;;;;;;9.77;1.73;;;21.10;71.80;;;;;;5069334;28;20427;-66
2023/04/03 10:22:47;;;;;;;9.33;1.77;;;21.00;72.10;;;;;;5060282;28;20645;-65
2023/04/03 10:25:36;;;;;;;9.43;2.33;;;21.00;72.70;;;;;;5067794;28;20665;-66
2023/04/03 10:28:10;;;;;;;13.77;2.23;;;20.90;73.00;;;;;;5070989;28;20218;-66
2023/04/03 10:30:54;;;;;;;10.57;1.93;;;20.90;73.30;;;;;;5075431;28;20549;-65
2023/04/03 10:33:58;;;;;;;13.40;1.47;;;20.80;73.50;;;;;;5065967;28;20661;-66
2023/04/03 10:36:37;;;;;;;9.70;2.10;;;20.80;73.70;;;;;;5032414;28;20230;-67
2023/04/03 10:39:31;;;;;;;12.40;2.47;;;20.80;73.40;;;;;;5072282;28;20183;-66
2023/04/03 10:42:19;;;;;;;10.03;2.17;;;20.80;73.70;;;;;;5074279;28;20601;-67
2023/04/03 10:44:58;;;;;;;9.53;2.00;;;20.70;74.00;;;;;;5082578;28;20531;-65
2023/04/03 10:47:49;;;;;;;7.40;1.80;;;20.60;73.50;;;;;;5073689;28;20178;-67
2023/04/03 10:50:41;;;;;;;9.13;1.50;;;20.50;73.40;;;;;;5075885;28;20197;-66
2023/04/03 10:53:35;;;;;;;10.83;1.63;;;20.60;73.30;;;;;;5068855;28;20183;-66
2023/04/03 10:56:14;;;;;;;10.43;2.07;;;20.60;73.00;;;;;;5062436;28;20238;-65
2023/04/03 10:58:48;;;;;;;7.77;1.80;;;20.60;72.90;;;;;;5072872;28;20542;-65
2023/04/03 11:01:21;;;;;;;8.50;1.70;;;20.50;73.00;;;;;;5070478;28;20669;-72
2023/04/03 11:03:57;;;;;;;10.23;2.00;;;20.50;73.20;;;;;;5069950;28;20274;-67
2023/04/03 11:06:31;;;;;;;8.03;2.10;;;20.40;73.30;;;;;;5073407;28;20225;-65
2023/04/03 11:09:05;;;;;;;9.67;2.10;;;20.40;73.60;;;;;;5071700;28;20723;-66
2023/04/03 11:11:36;;;;;;;8.20;1.87;;;20.30;73.90;;;;;;5073723;28;20185;-65
2023/04/03 11:14:21;;;;;;;13.17;2.13;;;20.30;74.30;;;;;;5077136;28;20259;-64
2023/04/03 11:17:12;;;;;;;5.83;2.00;;;20.30;74.60;;;;;;5073944;28;20724;-65
2023/04/03 11:20:01;;;;;;;9.77;2.00;;;20.10;74.90;;;;;;5065570;28;20191;-66
2023/04/03 11:22:45;;;;;;;9.43;1.83;;;20.10;75.40;;;;;;5073521;28;20187;-67
2023/04/03 11:25:12;;;;;;;8.97;2.10;;;20.00;75.40;;;;;;5071246;28;20178;-64
2023/04/03 11:28:01;;;;;;;9.30;1.90;;;20.00;75.40;;;;;;5071739;28;20194;-65
2023/04/03 11:30:31;;;;;;;15.50;2.67;;;20.00;75.20;;;;;;5060641;28;20175;-65
2023/04/03 11:33:29;;;;;;;8.20;2.20;;;20.00;75.30;;;;;;5069901;28;20183;-68
2023/04/03 11:36:01;;;;;;;11.83;2.27;;;20.00;75.30;;;;;;5073265;28;20245;-65
2023/04/03 11:38:39;;;;;;;11.87;2.17;;;19.90;75.20;;;;;;5071794;28;20175;-68
2023/04/03 11:41:09;;;;;;;6.73;1.73;;;19.90;75.30;;;;;;5081531;28;20649;-67
2023/04/03 11:43:42;;;;;;;5.83;1.83;;;19.80;75.20;;;;;;5073089;28;20394;-67
2023/04/03 11:46:10;;;;;;;15.73;2.00;;;19.80;75.40;;;;;;5061389;28;20187;-68
2023/04/03 11:48:38;;;;;;;11.77;2.20;;;19.70;75.80;;;;;;5060278;28;20186;-68
2023/04/03 11:51:27;;;;;;;14.97;2.33;;;19.70;76.00;;;;;;5074062;28;20520;-65
2023/04/03 11:53:54;;;;;;;8.53;2.10;;;19.70;76.20;;;;;;5074026;28;20182;-68
2023/04/03 11:56:27;;;;;;;8.60;2.37;;;19.70;76.20;;;;;;5084962;28;20237;-70
2023/04/03 11:59:18;;;;;;;12.77;1.93;;;19.70;76.50;;;;;;5074247;28;20184;-68
2023/04/03 12:01:51;;;;;;;9.97;2.03;;;19.70;76.40;;;;;;5084154;28;20221;-69
2023/04/03 12:04:21;;;;;;;10.87;1.87;;;19.70;76.40;;;;;;5092982;28;20202;-65
2023/04/03 12:06:48;;;;;;;8.13;1.77;;;19.60;76.50;;;;;;5073884;28;20266;-65
2023/04/03 12:09:40;;;;;;;10.20;2.20;;;19.60;76.50;;;;;;5071408;28;20219;-66
2023/04/03 12:12:30;;;;;;;9.13;1.60;;;19.60;76.80;;;;;;5068273;28;20628;-67
2023/04/03 12:15:19;;;;;;;16.60;1.90;;;19.60;76.50;;;;;;5071337;28;20222;-66
2023/04/03 12:17:47;;;;;;;7.43;1.80;;;19.50;76.70;;;;;;5073462;28;20190;-67
2023/04/03 12:21:06;;;;;;;11.30;2.30;;;19.50;76.80;;;;;;5073783;28;20179;-65
2023/04/03 12:23:56;;;;;;;10.67;1.70;;;19.50;76.80;;;;;;5040971;28;20270;-66
2023/04/03 12:26:32;;;;;;;8.57;2.10;;;19.50;76.90;;;;;;5069884;28;20218;-66
2023/04/03 12:29:02;;;;;;;8.67;1.20;;;19.50;77.20;;;;;;5072546;28;20194;-65
2023/04/03 12:31:46;;;;;;;9.33;2.07;;;19.40;77.10;;;;;;5071012;28;20171;-65
2023/04/03 12:34:27;;;;;;;7.50;1.73;;;19.50;77.50;;;;;;5064693;28;20198;-64
2023/04/03 12:37:35;;;;;;;9.50;2.47;;;19.50;77.70;;;;;;5072898;28;20241;-64
2023/04/03 12:40:46;;;;;;;11.13;1.87;;;19.50;77.70;;;;;;5077177;28;20187;-64
2023/04/03 12:43:37;;;;;;;7.50;1.60;;;19.50;77.40;;;;;;5030453;28;20334;-65
2023/04/03 12:46:11;;;;;;;7.70;1.83;;;19.50;77.80;;;;;;5031242;28;20581;-65
2023/04/03 12:48:51;;;;;;;7.83;1.60;;;19.40;77.90;;;;;;5060815;28;20244;-65
2023/04/03 12:51:43;;;;;;;12.77;1.80;;;19.40;78.40;;;;;;5073584;28;20549;-64
2023/04/03 12:54:39;;;;;;;9.27;1.73;;;19.30;78.70;;;;;;5072447;28;20194;-68
2023/04/03 12:57:30;;;;;;;5.77;1.60;;;19.20;79.00;;;;;;5071677;28;20227;-66
2023/04/03 12:59:58;;;;;;;8.43;2.10;;;19.20;79.40;;;;;;5067026;28;20195;-64
2023/04/03 13:02:34;;;;;;;7.60;1.83;;;19.10;79.90;;;;;;5069739;28;21293;-65
2023/04/03 13:05:09;;;;;;;12.17;2.20;;;19.10;80.20;;;;;;5080183;28;20179;-65
2023/04/03 13:07:40;;;;;;;9.10;2.07;;;19.10;80.40;;;;;;5069485;28;20178;-66
2023/04/03 13:10:07;;;;;;;8.17;2.00;;;19.10;80.60;;;;;;5075376;28;20209;-66